createdAt,value
2023-05-08T00:00:16.796Z,88.5
2023-05-08T00:08:32.284Z,89
2023-05-08T00:16:47.738Z,89
2023-05-08T00:25:03.214Z,89
2023-05-08T00:33:18.698Z,89
2023-05-08T00:41:34.168Z,88.5
2023-05-08T00:49:49.652Z,87.5
2023-05-08T00:58:05.172Z,87.5
2023-05-08T01:06:20.663Z,88
2023-05-08T01:14:36.065Z,87.5
2023-05-08T01:22:51.587Z,87.5
2023-05-08T01:31:07.073Z,88
2023-05-08T01:39:22.541Z,88
2023-05-08T01:47:38.036Z,87.5
2023-05-08T01:55:53.506Z,88.5
2023-05-08T02:04:08.994Z,88
2023-05-08T02:12:24.461Z,88
2023-05-08T02:20:39.956Z,88.5
2023-05-08T02:28:55.407Z,88.5
2023-05-08T02:37:10.873Z,88.5
2023-05-08T02:45:26.372Z,88
2023-05-08T02:53:41.885Z,88.5
2023-05-08T03:01:57.362Z,89.5
2023-05-08T03:10:12.901Z,89.5
2023-05-08T03:18:28.285Z,90
2023-05-08T03:26:43.762Z,90
2023-05-08T03:34:59.211Z,90
2023-05-08T03:43:14.686Z,89.5
2023-05-08T03:51:30.117Z,89.5
2023-05-08T03:59:45.604Z,89.5
2023-05-08T04:08:01.091Z,89.5
2023-05-08T04:16:16.548Z,89.5
2023-05-08T04:24:32.009Z,89.5
2023-05-08T04:32:47.548Z,89
2023-05-08T04:41:02.977Z,89
2023-05-08T04:49:18.434Z,89.5
2023-05-08T04:57:33.906Z,89
2023-05-08T05:05:49.389Z,88.5
2023-05-08T05:14:04.849Z,88
2023-05-08T05:22:20.292Z,87
2023-05-08T05:30:35.800Z,86.5
2023-05-08T05:38:51.309Z,86
2023-05-08T05:47:06.753Z,86
2023-05-08T05:55:22.255Z,86
2023-05-08T06:03:37.847Z,86
2023-05-08T06:11:53.241Z,86.5
2023-05-08T06:20:08.725Z,85
2023-05-08T06:28:24.239Z,85
2023-05-08T06:36:39.785Z,84
2023-05-08T06:44:55.318Z,83.5
2023-05-08T06:53:10.830Z,82
2023-05-08T07:01:26.391Z,79.5
2023-05-08T07:09:41.970Z,77.5
2023-05-08T07:17:57.562Z,77.5
2023-05-08T07:26:13.225Z,75.5
2023-05-08T07:34:28.784Z,76
2023-05-08T07:42:44.424Z,75.5
2023-05-08T07:51:00.094Z,74.5
2023-05-08T07:59:15.787Z,72
2023-05-08T08:07:31.505Z,73
2023-05-08T08:15:47.256Z,69
2023-05-08T08:24:08.997Z,65.5
2023-05-08T08:32:18.869Z,69
2023-05-08T08:40:34.588Z,70
2023-05-08T08:48:50.470Z,63.5
2023-05-08T08:57:06.560Z,52
2023-05-08T09:05:22.417Z,59.5
2023-05-08T09:13:38.205Z,65
2023-05-08T09:21:53.959Z,68.5
2023-05-08T09:30:09.627Z,69.5
2023-05-08T09:38:25.364Z,69.5
2023-05-08T09:46:41.061Z,65.5
2023-05-08T09:54:56.857Z,67.5
2023-05-08T10:03:12.835Z,66
2023-05-08T10:11:28.594Z,64
2023-05-08T10:19:44.457Z,64.5
2023-05-08T10:28:00.274Z,66.5
2023-05-08T10:36:16.064Z,67.5
2023-05-08T10:44:31.721Z,67.5
2023-05-08T10:52:47.439Z,67.5
2023-05-08T11:01:03.249Z,67
2023-05-08T11:09:18.889Z,67
2023-05-08T11:17:34.545Z,66.5
2023-05-08T11:25:50.247Z,67
2023-05-08T11:34:06.005Z,67
2023-05-08T11:42:21.709Z,63.5
2023-05-08T11:50:37.455Z,61.5
2023-05-08T11:58:53.366Z,62.5
2023-05-08T12:07:09.002Z,61.5
2023-05-08T12:15:24.791Z,61
2023-05-08T12:23:40.612Z,62
2023-05-08T12:31:56.480Z,61.5
2023-05-08T12:40:12.242Z,62.5
2023-05-08T12:48:27.893Z,60.5
2023-05-08T12:56:43.691Z,62.5
2023-05-08T13:04:59.332Z,62.5
2023-05-08T13:13:15.030Z,63.5
2023-05-08T13:21:30.713Z,63
2023-05-08T13:29:46.456Z,63.5
2023-05-08T13:38:02.243Z,65.5
2023-05-08T13:46:17.896Z,63
2023-05-08T13:54:33.505Z,60.5
2023-05-08T14:02:49.225Z,57
2023-05-08T14:11:04.955Z,57
2023-05-08T14:19:20.815Z,56.5
2023-05-08T14:27:36.623Z,56
2023-05-08T14:35:52.274Z,56.5
2023-05-08T14:44:07.931Z,57
2023-05-08T14:52:23.674Z,53
2023-05-08T15:00:39.524Z,56.5
2023-05-08T15:08:55.193Z,60
2023-05-08T15:17:10.991Z,62
2023-05-08T15:25:26.629Z,62
2023-05-08T15:33:42.402Z,63.5
2023-05-08T15:41:57.947Z,62
2023-05-08T15:58:27.386Z,63.5
2023-05-08T16:06:45.111Z,63
2023-05-08T16:15:00.559Z,62.5
2023-05-08T16:23:16.387Z,62
2023-05-08T16:31:32.029Z,61
2023-05-08T16:39:47.606Z,62.5
2023-05-08T16:48:03.198Z,64
2023-05-08T16:56:18.791Z,63.5
2023-05-08T17:04:34.424Z,63
2023-05-08T17:12:49.936Z,64
2023-05-08T17:21:05.694Z,63.5
2023-05-08T17:29:21.135Z,64.5
2023-05-08T17:37:36.791Z,63.5
2023-05-08T17:45:52.395Z,62
2023-05-08T17:54:07.982Z,61.5
2023-05-08T18:02:23.667Z,62
2023-05-08T18:10:39.272Z,62.5
2023-05-08T18:18:54.751Z,64
2023-05-08T18:27:10.359Z,64.5
2023-05-08T18:35:26.009Z,65.5
2023-05-08T18:43:41.537Z,66.5
2023-05-08T18:51:57.140Z,68
2023-05-08T19:00:12.622Z,69
2023-05-08T19:08:28.204Z,69
2023-05-08T19:16:43.720Z,70
2023-05-08T19:24:59.288Z,70.5
2023-05-08T19:33:14.815Z,70
2023-05-08T19:41:30.354Z,70.5
2023-05-08T19:49:45.934Z,70
2023-05-08T19:58:01.425Z,69.5
2023-05-08T20:06:16.941Z,69.5
2023-05-08T20:14:32.484Z,68
2023-05-08T20:22:48.098Z,67.5
2023-05-08T20:31:03.552Z,67.5
2023-05-08T20:39:19.132Z,67
2023-05-08T20:47:34.593Z,67.5
2023-05-08T20:55:50.144Z,67
2023-05-08T21:04:05.522Z,67.5
2023-05-08T21:12:21.033Z,67
2023-05-08T21:20:36.542Z,67
2023-05-08T21:28:52.088Z,68
2023-05-08T21:37:07.534Z,68.5
2023-05-08T21:45:23.130Z,69.5
2023-05-08T21:53:38.547Z,70
2023-05-08T22:01:54.033Z,70.5
2023-05-08T22:10:09.507Z,71.5
2023-05-08T22:18:24.968Z,72
2023-05-08T22:26:40.464Z,73
2023-05-08T22:34:55.937Z,73
2023-05-08T22:43:11.419Z,73.5
2023-05-08T22:51:26.891Z,73.5
2023-05-08T22:59:42.347Z,73
2023-05-08T23:07:57.867Z,73.5
2023-05-08T23:16:13.287Z,74
2023-05-08T23:24:28.789Z,74.5
2023-05-08T23:32:44.249Z,75
2023-05-08T23:40:59.737Z,75
2023-05-08T23:49:15.219Z,75.5
2023-05-08T23:57:30.667Z,76
